Latest Weather Observations for Wyndham Airport

IDW60801

Issued at 8:02 pm WST Monday 26 January 2015 (issued every 30 minutes, with the page automatically refreshed every 10 minutes)

About weather observations | Map of weather stations | Latest weather observations for WA | Other Formats
Station Details ID: 001006 Name: WYNDHAM AERO Lat: -15.51 Lon: 128.15 Height: 3.8 m
Data from the previous 72 hours. | See also: Recent months for locations in Western Australia
Date/Time
WST
Temp
°C
App
Temp
°C
Dew
Point
Rel
Hum
%
Delta-T
°C
Wind Press
QNH
hPa
Press
MSL
hPa
Rain
since 9 am
mm
Dir
 
Spd
km/h
Gust
km/h
Spd
kts
Gust
kts
26/08:00pm 28.6 31.3 23.5 74 3.5 SSW 15 20 8 11 1008.1 1008.1 0.0
26/07:30pm 28.6 28.9 22.3 68 4.3 SSW 24 32 13 17 1007.5 1007.5 0.0
26/07:00pm 30.7 34.3 24.4 69 4.4 NW 13 19 7 10 1006.8 1006.8 0.0
26/06:30pm 30.7 33.7 24.6 70 4.3 NNW 17 22 9 12 1006.5 1006.5 0.0
26/06:00pm 30.9 33.0 24.1 67 4.7 N 20 30 11 16 1006.0 1006.0 0.0
26/05:30pm 31.6 33.4 23.2 61 5.8 N 19 26 10 14 1005.1 1005.1 0.0
26/05:00pm 32.8 33.9 23.7 58 6.3 N 24 32 13 17 1004.5 1004.5 0.0
26/04:30pm 33.1 34.4 24.0 59 6.4 N 24 32 13 17 1004.1 1004.1 0.0
26/04:00pm 33.5 35.6 24.7 60 6.2 N 22 30 12 16 1003.7 1003.7 0.0
26/03:30pm 33.5 35.4 23.8 57 6.8 NNE 20 26 11 14 1003.3 1003.3 0.0
26/03:00pm 34.0 36.1 23.1 53 7.6 N 17 22 9 12 1003.4 1003.4 0.0
26/02:30pm 36.7 39.7 21.3 40 10.5 S 7 13 4 7 1003.9 1003.9 0.0
26/02:00pm 36.3 39.1 20.9 40 10.4 SSE 7 11 4 6 1004.7 1004.7 0.0
26/01:30pm 35.4 38.4 22.0 45 9.2 SSE 9 19 5 10 1005.3 1005.3 0.0
26/01:00pm 34.5 37.6 21.5 46 8.8 SE 7 15 4 8 1005.7 1005.7 0.0
26/12:30pm 35.2 38.7 22.2 47 8.9 NNE 7 15 4 8 1006.4 1006.4 0.0
26/12:00pm 35.0 36.5 22.0 46 8.9 E 17 22 9 12 1007.0 1007.0 0.0
26/11:30am 33.8 37.9 22.9 53 7.5 SSE 6 13 3 7 1007.5 1007.5 0.0
26/11:00am 32.9 35.5 22.0 52 7.4 SE 11 15 6 8 1007.9 1007.9 0.0
26/10:30am 32.4 35.3 23.1 58 6.4 SSE 13 17 7 9 1008.2 1008.2 0.0
26/10:00am 33.0 36.5 24.2 60 6.2 ESE 13 19 7 10 1008.7 1008.7 0.0
26/09:30am 31.9 34.3 22.9 59 6.2 ESE 15 19 8 10 1008.9 1008.9 0.0
26/09:00am 31.8 34.4 23.3 60 5.9 E 15 20 8 11 1009.3 1009.3 1.0
26/08:30am 31.1 35.4 23.7 64 5.1 ESE 7 13 4 7 1009.4 1009.4 1.0
26/08:00am 30.2 34.3 23.9 69 4.4 SSE 9 13 5 7 1009.3 1009.3 1.0
26/07:30am 29.0 34.3 23.7 73 3.7 E 2 7 1 4 1009.2 1009.2 1.0
26/07:00am 27.8 33.6 24.0 80 2.6 CALM 0 6 0 3 1008.7 1008.7 1.0
26/06:30am 27.0 32.8 24.5 86 1.7 NW 2 7 1 4 1008.5 1008.5 1.0
26/06:00am 26.5 31.5 24.5 89 1.4 WNW 6 11 3 6 1008.3 1008.3 1.0
26/05:30am 26.2 30.6 24.4 90 1.2 NNW 9 11 5 6 1007.6 1007.6 1.0
26/05:00am 26.2 31.0 24.1 88 1.4 W 6 9 3 5 1007.3 1007.3 1.0
26/04:30am 26.6 31.4 24.4 88 1.5 WSW 7 9 4 5 1006.9 1006.9 1.0
26/04:00am 26.6 30.8 24.1 86 1.7 WSW 9 13 5 7 1006.9 1006.9 1.0
26/03:30am 26.8 30.9 23.9 84 2.0 ESE 9 13 5 7 1006.9 1006.9 1.0
26/03:00am 26.8 29.8 23.3 81 2.4 E 13 17 7 9 1007.1 1007.1 1.0
26/02:30am 27.3 29.7 23.7 81 2.5 ESE 17 20 9 11 1007.8 1007.8 1.0
26/02:00am 27.3 31.0 24.6 85 1.9 S 13 20 7 11 1007.9 1007.9 1.0
26/01:30am 26.8 30.1 23.9 84 2.0 SSW 13 15 7 8 1008.1 1008.1 1.0
26/01:00am 26.7 29.2 23.8 84 2.0 S 17 19 9 10 1008.4 1008.4 1.0
26/12:30am 27.3 30.3 24.6 85 1.9 ESE 17 20 9 11 1008.4 1008.4 1.0
26/12:00am 28.2 31.3 24.2 79 2.8 ENE 15 17 8 9 1008.1 1008.1 0.6
 
Date/Time
WST
Temp
°C
App
Temp
°C
Dew
Point
Rel
Hum
%
Delta-T
°C
Wind Press
QNH
hPa
Press
MSL
hPa
Rain
since 9 am
mm
Dir
 
Spd
km/h
Gust
km/h
Spd
kts
Gust
kts
25/11:30pm 27.4 32.1 25.0 87 1.7 N 9 11 5 6 1008.2 1008.2 0.6
25/11:00pm 27.6 33.8 24.6 84 2.1 CALM 0 0 0 0 1009.1 1009.1 0.6
25/10:30pm 27.6 31.5 24.2 82 2.4 SSE 11 15 6 8 1009.0 1009.0 0.6
25/10:00pm 27.4 32.9 24.7 85 1.9 NW 4 7 2 4 1008.0 1008.0 0.6
25/09:30pm 27.4 32.9 24.0 82 2.3 NE 2 7 1 4 1007.8 1007.8 0.6
25/09:00pm 27.2 32.3 24.1 83 2.1 S 4 9 2 5 1008.0 1008.0 0.6
25/08:30pm 27.0 31.5 23.9 83 2.1 SSW 7 11 4 6 1007.6 1007.6 0.6
25/08:00pm 27.0 31.2 24.1 84 2.0 SSW 9 13 5 7 1007.6 1007.6 0.6
25/07:30pm 27.2 31.4 23.2 79 2.7 SW 6 11 3 6 1007.5 1007.5 0.6
25/07:00pm 27.7 29.1 22.9 75 3.3 W 20 26 11 14 1007.1 1007.1 0.6
25/06:30pm 27.3 31.1 24.0 82 2.3 NW 11 15 6 8 1007.3 1007.3 0.6
25/06:00pm 27.2 29.9 24.1 83 2.1 SW 17 24 9 13 1006.6 1006.6 0.6
25/05:30pm 27.7 30.4 23.5 78 2.9 W 15 20 8 11 1007.0 1007.0 0.6
25/05:00pm 26.3 26.3 23.8 86 1.7 ESE 30 41 16 22 1007.8 1007.8 0.2
25/04:44pm 27.9 30.7 24.3 81 2.5 ESE 17 41 9 22 1006.7 1006.7 0.0
25/04:30pm 29.5 31.8 23.4 69 4.2 WNW 17 46 9 25 1005.0 1005.0 0.0
25/04:17pm 32.3 33.2 23.3 59 6.2 NW 24 37 13 20 1005.2 1005.2 0.0
25/04:00pm 33.1 31.7 21.9 51 7.6 NNW 32 39 17 21 1003.2 1003.2 0.0
25/03:30pm 35.4 35.3 24.3 52 7.8 NW 32 54 17 29 1003.5 1003.5 0.0
25/03:27pm 35.7 37.0 24.0 51 8.2 WNW 24 54 13 29 1003.2 1003.2 0.0
25/03:25pm 38.1 41.6 25.5 48 9.0 WNW 17 48 9 26 1003.0 1003.0 0.0
25/03:00pm 38.6 41.2 22.6 39 11.1 SW 13 19 7 10 1003.4 1003.4 0.0
25/02:30pm 38.6 39.9 20.8 35 12.1 WSW 15 24 8 13 1003.9 1003.9 0.0
25/02:00pm 38.0 40.0 21.6 38 11.3 WSW 13 20 7 11 1004.0 1004.0 0.0
25/01:30pm 37.8 41.6 23.4 43 10.1 WSW 9 28 5 15 1004.8 1004.8 0.0
25/01:00pm 36.9 40.6 22.6 43 9.9 N 7 11 4 6 1005.6 1005.6 0.0
25/12:30pm 36.6 40.6 23.1 45 9.4 SW 7 13 4 7 1006.2 1006.2 0.0
25/12:00pm 36.6 40.6 22.7 44 9.6 SW 6 13 3 7 1006.8 1006.8 0.0
25/11:30am 35.9 39.7 22.8 46 9.1 WNW 7 15 4 8 1007.5 1007.5 0.0
25/11:00am 34.9 38.6 23.2 50 8.1 NW 9 15 5 8 1007.9 1007.9 0.0
25/10:30am 34.1 38.0 22.5 50 8.0 WSW 6 11 3 6 1008.3 1008.3 0.0
25/10:00am 34.2 38.8 23.2 52 7.6 WSW 4 13 2 7 1008.5 1008.5 0.0
25/09:30am 33.3 36.7 22.7 53 7.3 WSW 9 11 5 6 1008.7 1008.7 0.0
25/09:00am 32.9 36.7 22.7 55 7.0 WNW 7 11 4 6 1008.7 1008.7 0.0
25/08:30am 32.1 36.1 23.1 59 6.2 WSW 7 9 4 5 1008.5 1008.5 0.0
25/08:00am 31.4 35.4 22.7 60 6.0 N 6 11 3 6 1008.3 1008.3 0.0
25/07:30am 30.0 34.1 23.9 70 4.2 NNW 9 13 5 7 1008.1 1008.1 0.0
25/07:00am 29.4 33.3 24.3 74 3.6 NW 11 13 6 7 1007.7 1007.7 0.0
25/06:30am 28.7 32.0 23.8 75 3.4 NW 13 17 7 9 1007.3 1007.3 0.0
25/06:00am 28.3 32.9 24.7 81 2.5 NW 9 11 5 6 1006.9 1006.9 0.0
25/05:30am 28.1 33.0 24.7 82 2.4 NW 7 9 4 5 1006.3 1006.3 0.0
25/05:00am 28.5 34.3 24.5 79 2.8 WNW 2 7 1 4 1005.7 1005.7 0.0
25/04:30am 28.5 33.3 24.1 77 3.0 NNW 6 7 3 4 1005.5 1005.5 0.0
25/04:00am 28.2 32.7 24.0 78 2.9 NNW 7 9 4 5 1005.2 1005.2 0.0
25/03:30am 28.8 32.6 24.1 76 3.3 NW 11 11 6 6 1005.1 1005.1 0.0
25/03:00am 28.9 32.3 23.3 72 3.8 NNW 11 15 6 8 1004.7 1004.7 0.0
25/02:30am 29.1 33.1 23.8 73 3.7 NW 9 13 5 7 1004.7 1004.7 0.0
25/02:00am 29.2 33.4 24.1 74 3.5 NW 9 13 5 7 1004.5 1004.5 0.0
25/01:30am 30.1 34.0 23.0 65 4.9 NW 7 11 4 6 1004.7 1004.7 0.0
25/01:00am 29.7 33.1 23.4 69 4.3 NW 11 13 6 7 1005.3 1005.3 0.0
25/12:30am 30.1 34.1 23.8 69 4.4 NNW 9 13 5 7 1005.7 1005.7 0.0
25/12:00am 31.4 32.7 22.4 59 6.1 W 19 24 10 13 1006.1 1006.1 0.0
 
Date/Time
WST
Temp
°C
App
Temp
°C
Dew
Point
Rel
Hum
%
Delta-T
°C
Wind Press
QNH
hPa
Press
MSL
hPa
Rain
since 9 am
mm
Dir
 
Spd
km/h
Gust
km/h
Spd
kts
Gust
kts
24/11:30pm 31.0 34.1 24.1 66 4.8 W 15 19 8 10 1006.2 1006.2 0.0
24/11:00pm 31.6 34.0 22.9 60 6.0 W 15 22 8 12 1006.4 1006.4 0.0
24/10:30pm 31.8 34.8 23.3 60 5.9 W 13 17 7 9 1006.9 1006.9 0.0
24/10:00pm 32.0 34.5 23.8 62 5.7 W 17 24 9 13 1007.2 1007.2 0.0
24/09:30pm 32.0 37.1 25.6 69 4.5 W 9 13 5 7 1006.7 1006.7 0.0
24/09:00pm 31.8 36.7 25.9 71 4.2 NNW 11 15 6 8 1006.3 1006.3 0.0
24/08:30pm 31.9 36.7 26.2 72 4.1 NNW 13 17 7 9 1005.8 1005.8 0.0
24/08:00pm 32.3 34.4 25.9 69 4.6 N 26 35 14 19 1005.3 1005.3 0.0
24/07:30pm 32.7 35.2 26.0 68 4.8 N 24 32 13 17 1004.8 1004.8 0.0
24/07:00pm 33.3 35.4 24.7 60 6.1 N 22 28 12 15 1004.4 1004.4 0.0
24/06:30pm 33.0 35.5 26.0 66 5.0 N 24 33 13 18 1004.0 1004.0 0.0
24/06:19pm 33.6 35.9 25.0 60 6.1 N 22 32 12 17 1003.8 1003.8 0.0
24/06:00pm 35.1 39.1 23.8 52 7.9 N 9 13 5 7 1003.5 1003.5 0.0
24/05:30pm 36.8 39.5 21.4 41 10.5 N 9 11 5 6 1003.0 1003.0 0.0
24/05:00pm 38.1 40.5 20.0 35 12.2 NE 7 11 4 6 1002.7 1002.7 0.0
24/04:30pm 38.7 43.1 21.4 36 11.9 CALM 0 0 0 0 1002.4 1002.4 0.0
24/04:00pm 38.2 41.0 20.5 35 12.0 NE 6 11 3 6 1002.3 1002.3 0.0
24/03:30pm 38.9 40.6 20.2 33 12.6 WNW 11 15 6 8 1002.3 1002.3 0.0
24/03:00pm 38.8 41.9 21.5 37 11.9 NNW 7 13 4 7 1002.5 1002.5 0.0
24/02:30pm 39.6 42.7 20.3 32 13.1 WNW 4 9 2 5 1002.9 1002.9 0.0
24/02:00pm 39.0 41.7 20.3 34 12.7 W 6 11 3 6 1003.3 1003.3 0.0
24/01:30pm 38.7 40.5 19.5 32 12.8 W 9 15 5 8 1003.8 1003.8 0.0
24/01:00pm 38.3 40.4 20.1 34 12.3 WSW 9 19 5 10 1004.1 1004.1 0.0
24/12:30pm 37.7 40.3 20.1 36 11.8 WSW 6 13 3 7 1004.6 1004.6 0.0
24/12:00pm 37.2 40.0 20.9 38 11.1 WSW 7 15 4 8 1004.8 1004.8 0.0
24/11:30am 36.9 39.3 22.2 42 10.1 SW 13 19 7 10 1005.2 1005.2 0.0
24/11:00am 36.1 39.1 24.0 49 8.5 SW 15 20 8 11 1005.8 1005.8 0.0
24/10:30am 35.2 39.4 24.8 55 7.4 SW 11 17 6 9 1006.2 1006.2 0.0
24/10:00am 34.2 38.2 25.0 58 6.5 SW 13 20 7 11 1006.7 1006.7 0.0
24/09:30am 33.4 37.3 25.4 63 5.7 WSW 15 19 8 10 1006.9 1006.9 0.0
24/09:00am 32.9 36.4 25.4 64 5.3 W 17 20 9 11 1006.9 1006.9 0.0
24/08:30am 32.1 35.9 25.9 70 4.4 WSW 17 20 9 11 1006.9 1006.9 0.0
24/08:00am 31.3 35.3 25.6 71 4.1 WSW 15 19 8 10 1006.8 1006.8 0.0
24/07:30am 30.9 35.2 25.5 73 3.8 WSW 13 15 7 8 1006.5 1006.5 0.0
24/07:00am 30.3 34.2 25.4 75 3.5 WSW 15 20 8 11 1006.4 1006.4 0.0
24/06:30am 29.7 34.2 25.2 77 3.2 W 11 19 6 10 1006.1 1006.1 0.0
24/06:00am 28.9 33.6 24.9 79 2.8 WNW 9 11 5 6 1006.0 1006.0 0.0
24/05:30am 28.6 33.0 25.0 81 2.5 WNW 11 13 6 7 1005.7 1005.7 0.0
24/05:00am 28.5 32.3 24.7 80 2.7 WNW 13 17 7 9 1005.3 1005.3 0.0
24/04:30am 28.6 32.3 24.6 79 2.8 WNW 13 17 7 9 1004.9 1004.9 0.0
24/04:00am 28.5 32.4 24.9 81 2.5 WNW 13 19 7 10 1004.6 1004.6 0.0
24/03:30am 28.8 32.8 25.0 80 2.7 WNW 13 17 7 9 1004.5 1004.5 0.0
24/03:00am 29.1 32.6 24.9 78 2.9 WNW 15 19 8 10 1004.4 1004.4 0.0
24/02:30am 29.2 33.0 24.7 77 3.1 WNW 13 17 7 9 1004.6 1004.6 0.0
24/02:00am 28.8 32.9 24.6 78 2.9 NW 11 15 6 8 1004.6 1004.6 0.0
24/01:30am 29.5 34.2 25.5 79 2.8 WNW 11 13 6 7 1004.5 1004.5 0.0
24/01:00am 29.3 34.1 25.1 78 3.0 WNW 9 11 5 6 1004.4 1004.4 0.0
24/12:30am 29.7 33.6 24.3 73 3.8 NW 11 15 6 8 1004.6 1004.6 0.0
24/12:00am 30.4 33.0 23.3 66 4.9 NW 15 19 8 10 1004.6 1004.6 0.0
 
Date/Time
WST
Temp
°C
App
Temp
°C
Dew
Point
Rel
Hum
%
Delta-T
°C
Wind Press
QNH
hPa
Press
MSL
hPa
Rain
since 9 am
mm
Dir
 
Spd
km/h
Gust
km/h
Spd
kts
Gust
kts
23/11:30pm 30.7 34.9 23.4 65 5.0 SSW 7 11 4 6 1004.7 1004.7 0.0
23/11:00pm 30.7 34.2 23.6 66 4.9 SW 11 13 6 7 1004.9 1004.9 0.0
23/10:30pm 30.7 35.6 24.6 70 4.3 SW 7 9 4 5 1005.1 1005.1 0.0
23/10:00pm 31.8 35.3 22.2 56 6.5 NW 7 17 4 9 1005.4 1005.4 0.0
23/09:30pm 31.5 35.0 21.9 56 6.5 NNE 6 9 3 5 1005.4 1005.4 0.0
23/09:00pm 30.5 35.0 23.9 68 4.6 NE 7 9 4 5 1005.4 1005.4 0.0
23/08:30pm 30.6 36.7 24.5 70 4.3 CALM 0 0 0 0 1005.5 1005.5 0.0

Other Formats:

Comma delimited format used in spreadsheet applications
http://www.bom.gov.au/fwo/IDW60801/IDW60801.95214.axf

JavaScript Object Notation format (JSON) in row-major order
http://www.bom.gov.au/fwo/IDW60801/IDW60801.95214.json